sensor_id;sensor_type;location;lat;lon;timestamp;pressure;altitude;pressure_sealevel;temperature;humidity
65190;BME280;51777;53.570;9.984;2023-06-14T00:01:42;101629.00;;;16.76;100.00
65190;BME280;51777;53.570;9.984;2023-06-14T00:04:10;101628.19;;;16.83;100.00
65190;BME280;51777;53.570;9.984;2023-06-14T00:06:35;101623.13;;;16.82;100.00
65190;BME280;51777;53.570;9.984;2023-06-14T00:09:01;101629.47;;;16.63;100.00
65190;BME280;51777;53.570;9.984;2023-06-14T00:11:26;101627.50;;;16.65;100.00
65190;BME280;51777;53.570;9.984;2023-06-14T00:13:52;101633.44;;;16.75;100.00
65190;BME280;51777;53.570;9.984;2023-06-14T00:16:17;101638.31;;;16.78;100.00
65190;BME280;51777;53.570;9.984;2023-06-14T00:18:42;101644.16;;;16.72;100.00
65190;BME280;51777;53.570;9.984;2023-06-14T00:21:07;101646.75;;;16.56;100.00
65190;BME280;51777;53.570;9.984;2023-06-14T00:23:33;101637.94;;;16.49;100.00
65190;BME280;51777;53.570;9.984;2023-06-14T00:25:58;101640.56;;;16.40;100.00
65190;BME280;51777;53.570;9.984;2023-06-14T00:28:24;101642.66;;;16.45;100.00
65190;BME280;51777;53.570;9.984;2023-06-14T00:30:49;101648.25;;;16.50;100.00
65190;BME280;51777;53.570;9.984;2023-06-14T00:33:14;101654.94;;;16.53;100.00
65190;BME280;51777;53.570;9.984;2023-06-14T00:35:40;101651.00;;;16.40;100.00
65190;BME280;51777;53.570;9.984;2023-06-14T00:38:05;101645.13;;;16.47;100.00
65190;BME280;51777;53.570;9.984;2023-06-14T00:40:30;101651.97;;;16.48;100.00
65190;BME280;51777;53.570;9.984;2023-06-14T00:42:55;101652.13;;;16.38;100.00
65190;BME280;51777;53.570;9.984;2023-06-14T00:45:21;101657.19;;;16.39;100.00
65190;BME280;51777;53.570;9.984;2023-06-14T00:47:46;101654.72;;;16.30;100.00
65190;BME280;51777;53.570;9.984;2023-06-14T00:50:12;101662.34;;;16.23;100.00
65190;BME280;51777;53.570;9.984;2023-06-14T00:52:38;101659.91;;;16.22;100.00
65190;BME280;51777;53.570;9.984;2023-06-14T00:55:04;101659.63;;;16.33;100.00
65190;BME280;51777;53.570;9.984;2023-06-14T00:57:29;101663.41;;;16.38;100.00
65190;BME280;51777;53.570;9.984;2023-06-14T00:59:55;101663.38;;;16.30;100.00
65190;BME280;51777;53.570;9.984;2023-06-14T01:02:20;101659.09;;;16.21;100.00
65190;BME280;51777;53.570;9.984;2023-06-14T01:04:46;101667.44;;;16.25;100.00
65190;BME280;51777;53.570;9.984;2023-06-14T01:07:18;101660.09;;;16.28;100.00
65190;BME280;51777;53.570;9.984;2023-06-14T01:12:24;101669.22;;;16.16;100.00
65190;BME280;51777;53.570;9.984;2023-06-14T01:14:52;101664.44;;;16.11;100.00
65190;BME280;51777;53.570;9.984;2023-06-14T01:17:19;101663.78;;;16.09;100.00
65190;BME280;51777;53.570;9.984;2023-06-14T01:19:44;101672.44;;;16.02;100.00
65190;BME280;51777;53.570;9.984;2023-06-14T01:22:10;101662.50;;;16.05;100.00
65190;BME280;51777;53.570;9.984;2023-06-14T01:24:36;101666.25;;;16.03;100.00
65190;BME280;51777;53.570;9.984;2023-06-14T01:27:01;101668.16;;;15.93;100.00
65190;BME280;51777;53.570;9.984;2023-06-14T01:29:27;101666.84;;;15.97;100.00
65190;BME280;51777;53.570;9.984;2023-06-14T01:31:57;101669.13;;;15.92;100.00
65190;BME280;51777;53.570;9.984;2023-06-14T01:34:23;101672.44;;;16.02;100.00
65190;BME280;51777;53.570;9.984;2023-06-14T01:36:48;101673.16;;;15.86;100.00
65190;BME280;51777;53.570;9.984;2023-06-14T01:39:14;101667.66;;;15.89;100.00
65190;BME280;51777;53.570;9.984;2023-06-14T01:41:40;101667.66;;;15.97;100.00
65190;BME280;51777;53.570;9.984;2023-06-14T01:44:06;101672.34;;;15.85;100.00
65190;BME280;51777;53.570;9.984;2023-06-14T01:46:32;101666.69;;;15.90;100.00
65190;BME280;51777;53.570;9.984;2023-06-14T01:48:57;101667.50;;;15.99;100.00
65190;BME280;51777;53.570;9.984;2023-06-14T01:51:23;101668.47;;;15.90;100.00
65190;BME280;51777;53.570;9.984;2023-06-14T01:53:49;101662.28;;;15.91;100.00
65190;BME280;51777;53.570;9.984;2023-06-14T01:56:14;101668.81;;;15.95;100.00
65190;BME280;51777;53.570;9.984;2023-06-14T01:58:39;101674.63;;;15.80;100.00
65190;BME280;51777;53.570;9.984;2023-06-14T02:01:05;101675.78;;;15.86;100.00
65190;BME280;51777;53.570;9.984;2023-06-14T02:03:31;101678.81;;;15.65;100.00
65190;BME280;51777;53.570;9.984;2023-06-14T02:05:57;101677.81;;;15.66;100.00
65190;BME280;51777;53.570;9.984;2023-06-14T02:08:22;101669.03;;;15.67;100.00
65190;BME280;51777;53.570;9.984;2023-06-14T02:10:48;101670.00;;;15.66;100.00
65190;BME280;51777;53.570;9.984;2023-06-14T02:13:13;101671.56;;;15.59;100.00
65190;BME280;51777;53.570;9.984;2023-06-14T02:15:38;101676.69;;;15.69;100.00
65190;BME280;51777;53.570;9.984;2023-06-14T02:18:05;101669.38;;;15.72;100.00
65190;BME280;51777;53.570;9.984;2023-06-14T02:20:30;101683.84;;;15.67;100.00
65190;BME280;51777;53.570;9.984;2023-06-14T02:22:56;101676.19;;;15.65;100.00
65190;BME280;51777;53.570;9.984;2023-06-14T02:25:21;101673.22;;;15.60;100.00
65190;BME280;51777;53.570;9.984;2023-06-14T02:27:46;101669.91;;;15.58;100.00
65190;BME280;51777;53.570;9.984;2023-06-14T02:30:12;101677.81;;;15.66;100.00
65190;BME280;51777;53.570;9.984;2023-06-14T02:32:37;101679.94;;;15.71;100.00
65190;BME280;51777;53.570;9.984;2023-06-14T02:35:03;101676.91;;;15.75;100.00
65190;BME280;51777;53.570;9.984;2023-06-14T02:37:28;101683.59;;;15.78;100.00
65190;BME280;51777;53.570;9.984;2023-06-14T02:39:55;101681.09;;;15.68;100.00
65190;BME280;51777;53.570;9.984;2023-06-14T02:42:20;101685.22;;;15.53;100.00
65190;BME280;51777;53.570;9.984;2023-06-14T02:44:46;101677.19;;;15.46;100.00
65190;BME280;51777;53.570;9.984;2023-06-14T02:47:16;101682.31;;;15.56;100.00
65190;BME280;51777;53.570;9.984;2023-06-14T02:49:41;101682.97;;;15.58;100.00
65190;BME280;51777;53.570;9.984;2023-06-14T02:52:06;101683.06;;;15.48;100.00
65190;BME280;51777;53.570;9.984;2023-06-14T02:54:31;101688.44;;;15.47;100.00
65190;BME280;51777;53.570;9.984;2023-06-14T02:56:57;101691.13;;;15.37;100.00
65190;BME280;51777;53.570;9.984;2023-06-14T02:59:22;101689.34;;;15.38;100.00
65190;BME280;51777;53.570;9.984;2023-06-14T03:01:50;101698.00;;;15.38;100.00
65190;BME280;51777;53.570;9.984;2023-06-14T03:04:15;101692.31;;;15.43;100.00
65190;BME280;51777;53.570;9.984;2023-06-14T03:06:41;101690.59;;;15.51;100.00
65190;BME280;51777;53.570;9.984;2023-06-14T03:09:09;101694.69;;;15.54;100.00
65190;BME280;51777;53.570;9.984;2023-06-14T03:11:34;101686.38;;;15.58;100.00
65190;BME280;51777;53.570;9.984;2023-06-14T03:14:00;101702.56;;;15.62;100.00
65190;BME280;51777;53.570;9.984;2023-06-14T03:16:26;101698.47;;;15.60;100.00
65190;BME280;51777;53.570;9.984;2023-06-14T03:18:54;101702.94;;;15.49;100.00
65190;BME280;51777;53.570;9.984;2023-06-14T03:21:20;101696.22;;;15.39;100.00
65190;BME280;51777;53.570;9.984;2023-06-14T03:23:46;101714.03;;;15.25;100.00
65190;BME280;51777;53.570;9.984;2023-06-14T03:26:11;101710.34;;;15.36;100.00
65190;BME280;51777;53.570;9.984;2023-06-14T03:28:42;101703.41;;;15.45;100.00
65190;BME280;51777;53.570;9.984;2023-06-14T03:31:08;101708.31;;;15.48;100.00
65190;BME280;51777;53.570;9.984;2023-06-14T03:33:34;101706.34;;;15.42;100.00
65190;BME280;51777;53.570;9.984;2023-06-14T03:35:59;101710.50;;;15.35;100.00
65190;BME280;51777;53.570;9.984;2023-06-14T03:38:24;101702.84;;;15.33;100.00
65190;BME280;51777;53.570;9.984;2023-06-14T03:40:50;101710.25;;;15.20;100.00
65190;BME280;51777;53.570;9.984;2023-06-14T03:43:15;101715.81;;;15.25;100.00
65190;BME280;51777;53.570;9.984;2023-06-14T03:45:40;101715.22;;;15.31;100.00
65190;BME280;51777;53.570;9.984;2023-06-14T03:48:06;101719.59;;;15.31;100.00
65190;BME280;51777;53.570;9.984;2023-06-14T03:50:33;101721.75;;;15.35;100.00
65190;BME280;51777;53.570;9.984;2023-06-14T03:52:58;101723.22;;;15.38;100.00
65190;BME280;51777;53.570;9.984;2023-06-14T03:55:23;101729.13;;;15.40;100.00
65190;BME280;51777;53.570;9.984;2023-06-14T03:57:50;101737.69;;;15.32;100.00
65190;BME280;51777;53.570;9.984;2023-06-14T04:00:16;101736.63;;;15.43;100.00
65190;BME280;51777;53.570;9.984;2023-06-14T04:02:41;101739.75;;;15.46;100.00
65190;BME280;51777;53.570;9.984;2023-06-14T04:05:06;101751.53;;;15.50;100.00
65190;BME280;51777;53.570;9.984;2023-06-14T04:07:33;101743.63;;;15.42;100.00
65190;BME280;51777;53.570;9.984;2023-06-14T04:10:05;101747.06;;;15.43;100.00
65190;BME280;51777;53.570;9.984;2023-06-14T04:12:30;101753.91;;;15.44;100.00
65190;BME280;51777;53.570;9.984;2023-06-14T04:14:55;101767.34;;;15.57;100.00
65190;BME280;51777;53.570;9.984;2023-06-14T04:17:21;101768.59;;;15.71;100.00
65190;BME280;51777;53.570;9.984;2023-06-14T04:19:46;101766.88;;;15.79;100.00
65190;BME280;51777;53.570;9.984;2023-06-14T04:22:12;101776.88;;;15.92;100.00
65190;BME280;51777;53.570;9.984;2023-06-14T04:24:37;101762.81;;;15.85;100.00
65190;BME280;51777;53.570;9.984;2023-06-14T04:27:03;101771.00;;;16.24;100.00
65190;BME280;51777;53.570;9.984;2023-06-14T04:29:28;101763.97;;;16.17;100.00
65190;BME280;51777;53.570;9.984;2023-06-14T04:31:54;101761.63;;;16.05;100.00
65190;BME280;51777;53.570;9.984;2023-06-14T04:34:23;101768.47;;;16.06;100.00
65190;BME280;51777;53.570;9.984;2023-06-14T04:36:49;101774.19;;;16.10;100.00
65190;BME280;51777;53.570;9.984;2023-06-14T04:39:17;101778.47;;;16.19;100.00
65190;BME280;51777;53.570;9.984;2023-06-14T04:41:43;101776.00;;;16.09;100.00
65190;BME280;51777;53.570;9.984;2023-06-14T04:44:08;101772.94;;;16.14;100.00
65190;BME280;51777;53.570;9.984;2023-06-14T04:46:35;101771.84;;;16.25;100.00
65190;BME280;51777;53.570;9.984;2023-06-14T04:49:11;101769.56;;;16.30;100.00
65190;BME280;51777;53.570;9.984;2023-06-14T04:51:39;101768.13;;;16.43;100.00
65190;BME280;51777;53.570;9.984;2023-06-14T04:54:05;101766.53;;;16.51;100.00
65190;BME280;51777;53.570;9.984;2023-06-14T04:56:35;101761.66;;;16.64;100.00
65190;BME280;51777;53.570;9.984;2023-06-14T04:59:02;101773.56;;;16.58;100.00
65190;BME280;51777;53.570;9.984;2023-06-14T05:01:29;101773.34;;;16.43;100.00
65190;BME280;51777;53.570;9.984;2023-06-14T05:03:55;101776.28;;;16.49;100.00
65190;BME280;51777;53.570;9.984;2023-06-14T05:06:20;101778.25;;;16.47;100.00
65190;BME280;51777;53.570;9.984;2023-06-14T05:08:46;101775.69;;;16.55;100.00
65190;BME280;51777;53.570;9.984;2023-06-14T05:11:11;101767.34;;;16.51;100.00
65190;BME280;51777;53.570;9.984;2023-06-14T05:13:36;101769.16;;;16.59;100.00
65190;BME280;51777;53.570;9.984;2023-06-14T05:16:02;101772.16;;;16.72;100.00
65190;BME280;51777;53.570;9.984;2023-06-14T05:18:27;101773.00;;;16.89;100.00
65190;BME280;51777;53.570;9.984;2023-06-14T05:20:53;101775.16;;;17.01;100.00
65190;BME280;51777;53.570;9.984;2023-06-14T05:23:18;101779.56;;;17.01;100.00
65190;BME280;51777;53.570;9.984;2023-06-14T05:25:44;101774.66;;;17.06;100.00
65190;BME280;51777;53.570;9.984;2023-06-14T05:28:09;101775.16;;;17.18;100.00
65190;BME280;51777;53.570;9.984;2023-06-14T05:30:35;101783.00;;;17.26;100.00
65190;BME280;51777;53.570;9.984;2023-06-14T05:33:00;101784.28;;;17.30;100.00
65190;BME280;51777;53.570;9.984;2023-06-14T05:35:26;101783.78;;;17.43;100.00
65190;BME280;51777;53.570;9.984;2023-06-14T05:37:52;101782.66;;;17.45;100.00
65190;BME280;51777;53.570;9.984;2023-06-14T05:40:17;101779.56;;;17.50;100.00
65190;BME280;51777;53.570;9.984;2023-06-14T05:42:42;101779.69;;;17.48;100.00
65190;BME280;51777;53.570;9.984;2023-06-14T05:45:08;101782.00;;;17.51;100.00
65190;BME280;51777;53.570;9.984;2023-06-14T05:47:33;101785.41;;;17.60;100.00
65190;BME280;51777;53.570;9.984;2023-06-14T05:49:58;101786.72;;;17.64;100.00
65190;BME280;51777;53.570;9.984;2023-06-14T05:52:23;101784.91;;;17.65;100.00
65190;BME280;51777;53.570;9.984;2023-06-14T05:54:50;101789.34;;;17.72;100.00
65190;BME280;51777;53.570;9.984;2023-06-14T05:57:15;101790.50;;;17.70;100.00
65190;BME280;51777;53.570;9.984;2023-06-14T05:59:41;101802.22;;;17.90;100.00
65190;BME280;51777;53.570;9.984;2023-06-14T06:02:06;101799.09;;;17.95;100.00
65190;BME280;51777;53.570;9.984;2023-06-14T06:04:31;101808.41;;;17.97;100.00
65190;BME280;51777;53.570;9.984;2023-06-14T06:06:57;101804.44;;;18.09;100.00
65190;BME280;51777;53.570;9.984;2023-06-14T06:09:22;101804.25;;;18.27;100.00
65190;BME280;51777;53.570;9.984;2023-06-14T06:11:47;101810.84;;;18.46;100.00
65190;BME280;51777;53.570;9.984;2023-06-14T06:14:12;101810.56;;;18.41;100.00
65190;BME280;51777;53.570;9.984;2023-06-14T06:16:38;101815.97;;;18.39;100.00
65190;BME280;51777;53.570;9.984;2023-06-14T06:19:03;101821.03;;;18.41;100.00
65190;BME280;51777;53.570;9.984;2023-06-14T06:21:28;101818.25;;;18.42;100.00
65190;BME280;51777;53.570;9.984;2023-06-14T06:23:53;101819.69;;;18.45;100.00
65190;BME280;51777;53.570;9.984;2023-06-14T06:26:21;101822.38;;;18.37;100.00
65190;BME280;51777;53.570;9.984;2023-06-14T06:28:46;101825.97;;;18.36;100.00
65190;BME280;51777;53.570;9.984;2023-06-14T06:31:11;101813.47;;;18.46;100.00
65190;BME280;51777;53.570;9.984;2023-06-14T06:33:37;101817.78;;;18.39;100.00
65190;BME280;51777;53.570;9.984;2023-06-14T06:36:04;101826.09;;;18.42;100.00
65190;BME280;51777;53.570;9.984;2023-06-14T06:38:30;101819.75;;;18.37;100.00
65190;BME280;51777;53.570;9.984;2023-06-14T06:40:55;101828.69;;;18.51;100.00
65190;BME280;51777;53.570;9.984;2023-06-14T06:43:21;101821.66;;;18.51;100.00
65190;BME280;51777;53.570;9.984;2023-06-14T06:45:49;101824.56;;;18.56;100.00
65190;BME280;51777;53.570;9.984;2023-06-14T06:48:14;101828.13;;;18.63;100.00
65190;BME280;51777;53.570;9.984;2023-06-14T06:50:41;101834.66;;;18.75;100.00
65190;BME280;51777;53.570;9.984;2023-06-14T06:53:06;101836.88;;;18.87;100.00
65190;BME280;51777;53.570;9.984;2023-06-14T06:55:32;101842.69;;;18.97;100.00
65190;BME280;51777;53.570;9.984;2023-06-14T06:57:58;101840.84;;;19.05;100.00
65190;BME280;51777;53.570;9.984;2023-06-14T07:00:24;101841.50;;;19.07;100.00
65190;BME280;51777;53.570;9.984;2023-06-14T07:02:50;101846.31;;;19.19;100.00
65190;BME280;51777;53.570;9.984;2023-06-14T07:05:16;101848.31;;;19.17;100.00
65190;BME280;51777;53.570;9.984;2023-06-14T07:07:41;101850.06;;;19.24;100.00
65190;BME280;51777;53.570;9.984;2023-06-14T07:10:06;101849.31;;;19.39;100.00
65190;BME280;51777;53.570;9.984;2023-06-14T07:12:32;101855.19;;;19.41;100.00
65190;BME280;51777;53.570;9.984;2023-06-14T07:14:59;101859.63;;;19.40;100.00
65190;BME280;51777;53.570;9.984;2023-06-14T07:17:24;101856.22;;;19.54;100.00
65190;BME280;51777;53.570;9.984;2023-06-14T07:19:51;101859.81;;;19.61;100.00
65190;BME280;51777;53.570;9.984;2023-06-14T07:22:16;101862.88;;;19.65;100.00
65190;BME280;51777;53.570;9.984;2023-06-14T07:24:42;101851.31;;;19.74;100.00
65190;BME280;51777;53.570;9.984;2023-06-14T07:27:07;101857.50;;;19.96;100.00
65190;BME280;51777;53.570;9.984;2023-06-14T07:29:33;101853.97;;;20.04;100.00
65190;BME280;51777;53.570;9.984;2023-06-14T07:31:58;101862.03;;;20.02;100.00
65190;BME280;51777;53.570;9.984;2023-06-14T07:34:24;101855.34;;;20.14;100.00
65190;BME280;51777;53.570;9.984;2023-06-14T07:36:58;101857.78;;;20.31;100.00
65190;BME280;51777;53.570;9.984;2023-06-14T07:39:27;101851.00;;;20.36;100.00
65190;BME280;51777;53.570;9.984;2023-06-14T07:41:55;101855.25;;;20.37;100.00
65190;BME280;51777;53.570;9.984;2023-06-14T07:44:21;101852.69;;;20.59;100.00
65190;BME280;51777;53.570;9.984;2023-06-14T07:46:46;101857.47;;;20.70;100.00
65190;BME280;51777;53.570;9.984;2023-06-14T07:49:14;101854.75;;;20.78;100.00
65190;BME280;51777;53.570;9.984;2023-06-14T07:51:40;101852.75;;;20.80;100.00
65190;BME280;51777;53.570;9.984;2023-06-14T07:54:06;101862.41;;;20.94;100.00
65190;BME280;51777;53.570;9.984;2023-06-14T07:56:32;101859.41;;;20.97;100.00
65190;BME280;51777;53.570;9.984;2023-06-14T07:58:58;101860.41;;;21.18;100.00
65190;BME280;51777;53.570;9.984;2023-06-14T08:01:25;101857.38;;;21.35;100.00
65190;BME280;51777;53.570;9.984;2023-06-14T08:03:50;101861.75;;;21.28;100.00
65190;BME280;51777;53.570;9.984;2023-06-14T08:06:17;101855.88;;;21.26;100.00
65190;BME280;51777;53.570;9.984;2023-06-14T08:08:42;101855.91;;;21.54;100.00
65190;BME280;51777;53.570;9.984;2023-06-14T08:11:07;101855.28;;;21.80;100.00
65190;BME280;51777;53.570;9.984;2023-06-14T08:13:32;101854.38;;;21.94;100.00
65190;BME280;51777;53.570;9.984;2023-06-14T08:15:58;101858.31;;;23.01;100.00
65190;BME280;51777;53.570;9.984;2023-06-14T08:18:23;101875.91;;;25.97;100.00
65190;BME280;51777;53.570;9.984;2023-06-14T08:20:48;101876.66;;;27.42;100.00
65190;BME280;51777;53.570;9.984;2023-06-14T08:23:15;101873.78;;;26.05;100.00
65190;BME280;51777;53.570;9.984;2023-06-14T08:25:44;101881.16;;;27.89;100.00
65190;BME280;51777;53.570;9.984;2023-06-14T08:28:09;101894.44;;;29.93;97.19
65190;BME280;51777;53.570;9.984;2023-06-14T08:30:34;101900.38;;;31.99;95.44
65190;BME280;51777;53.570;9.984;2023-06-14T08:32:59;101907.06;;;32.64;94.84
65190;BME280;51777;53.570;9.984;2023-06-14T08:35:25;101907.44;;;32.21;94.30
65190;BME280;51777;53.570;9.984;2023-06-14T08:37:50;101908.16;;;32.68;93.91
65190;BME280;51777;53.570;9.984;2023-06-14T08:40:23;101914.09;;;33.32;92.96
65190;BME280;51777;53.570;9.984;2023-06-14T08:42:52;101908.41;;;33.89;92.88
65190;BME280;51777;53.570;9.984;2023-06-14T08:45:18;101912.50;;;34.41;92.51
65190;BME280;51777;53.570;9.984;2023-06-14T08:47:43;101905.00;;;34.38;92.24
65190;BME280;51777;53.570;9.984;2023-06-14T08:50:09;101913.78;;;35.56;91.14
65190;BME280;51777;53.570;9.984;2023-06-14T08:52:35;101909.28;;;35.17;90.94
65190;BME280;51777;53.570;9.984;2023-06-14T08:55:07;101921.13;;;36.22;90.23
65190;BME280;51777;53.570;9.984;2023-06-14T08:57:35;101909.97;;;34.00;91.94
65190;BME280;51777;53.570;9.984;2023-06-14T09:00:02;101915.31;;;34.65;91.71
65190;BME280;51777;53.570;9.984;2023-06-14T09:02:38;101917.03;;;34.51;91.68
65190;BME280;51777;53.570;9.984;2023-06-14T09:05:10;101916.13;;;34.11;91.54
65190;BME280;51777;53.570;9.984;2023-06-14T09:07:36;101909.25;;;34.49;92.60
65190;BME280;51777;53.570;9.984;2023-06-14T09:10:07;101903.41;;;34.37;92.12
65190;BME280;51777;53.570;9.984;2023-06-14T09:12:33;101905.25;;;33.56;92.67
65190;BME280;51777;53.570;9.984;2023-06-14T09:14:58;101898.28;;;31.59;95.05
65190;BME280;51777;53.570;9.984;2023-06-14T09:17:24;101899.19;;;31.75;94.50
65190;BME280;51777;53.570;9.984;2023-06-14T09:19:49;101903.13;;;32.09;94.12
65190;BME280;51777;53.570;9.984;2023-06-14T09:22:16;101906.59;;;32.10;94.48
65190;BME280;51777;53.570;9.984;2023-06-14T09:24:41;101903.63;;;32.79;92.73
65190;BME280;51777;53.570;9.984;2023-06-14T09:27:07;101899.81;;;32.60;93.32
65190;BME280;51777;53.570;9.984;2023-06-14T09:29:33;101877.84;;;30.30;96.29
65190;BME280;51777;53.570;9.984;2023-06-14T09:31:58;101884.78;;;30.31;96.55
65190;BME280;51777;53.570;9.984;2023-06-14T09:34:23;101893.72;;;33.20;93.21
65190;BME280;51777;53.570;9.984;2023-06-14T09:36:49;101893.47;;;32.96;93.75
65190;BME280;51777;53.570;9.984;2023-06-14T09:39:17;101902.06;;;34.29;92.38
65190;BME280;51777;53.570;9.984;2023-06-14T09:41:42;101891.00;;;32.64;93.31
65190;BME280;51777;53.570;9.984;2023-06-14T09:44:09;101896.59;;;32.53;93.65
65190;BME280;51777;53.570;9.984;2023-06-14T09:46:35;101891.72;;;32.34;93.64
65190;BME280;51777;53.570;9.984;2023-06-14T09:49:01;101894.53;;;33.26;92.65
65190;BME280;51777;53.570;9.984;2023-06-14T09:51:27;101903.66;;;32.06;93.79
65190;BME280;51777;53.570;9.984;2023-06-14T09:53:53;101902.72;;;32.38;93.96
65190;BME280;51777;53.570;9.984;2023-06-14T09:58:54;101896.94;;;33.33;92.14
65190;BME280;51777;53.570;9.984;2023-06-14T10:01:20;101895.50;;;33.96;92.57
65190;BME280;51777;53.570;9.984;2023-06-14T10:03:49;101901.13;;;33.95;92.75
65190;BME280;51777;53.570;9.984;2023-06-14T10:06:15;101903.13;;;35.46;91.30
65190;BME280;51777;53.570;9.984;2023-06-14T10:08:41;101900.09;;;35.52;90.67
65190;BME280;51777;53.570;9.984;2023-06-14T10:11:07;101884.09;;;33.40;92.80
65190;BME280;51777;53.570;9.984;2023-06-14T10:13:32;101883.81;;;32.85;93.96
65190;BME280;51777;53.570;9.984;2023-06-14T10:18:40;101875.44;;;31.78;95.23
65190;BME280;51777;53.570;9.984;2023-06-14T10:23:53;101882.06;;;29.65;97.29
65190;BME280;51777;53.570;9.984;2023-06-14T10:26:22;101878.97;;;30.61;95.79
65190;BME280;51777;53.570;9.984;2023-06-14T10:28:58;101878.38;;;31.87;94.13
65190;BME280;51777;53.570;9.984;2023-06-14T10:31:35;101876.84;;;33.40;92.69
65190;BME280;51777;53.570;9.984;2023-06-14T10:34:04;101870.63;;;31.80;94.19
65190;BME280;51777;53.570;9.984;2023-06-14T10:36:30;101881.69;;;32.87;93.53
65190;BME280;51777;53.570;9.984;2023-06-14T10:41:37;101869.91;;;30.62;95.38
65190;BME280;51777;53.570;9.984;2023-06-14T10:46:45;101867.44;;;31.46;94.35
65190;BME280;51777;53.570;9.984;2023-06-14T10:49:11;101862.47;;;32.18;93.76
65190;BME280;51777;53.570;9.984;2023-06-14T10:51:41;101861.78;;;31.80;94.86
65190;BME280;51777;53.570;9.984;2023-06-14T10:54:12;101857.22;;;31.01;95.62
65190;BME280;51777;53.570;9.984;2023-06-14T10:59:13;101852.44;;;31.82;95.26
65190;BME280;51777;53.570;9.984;2023-06-14T11:04:23;101855.16;;;30.81;94.63
65190;BME280;51777;53.570;9.984;2023-06-14T11:06:53;101847.25;;;30.91;95.41
65190;BME280;51777;53.570;9.984;2023-06-14T11:09:31;101842.91;;;30.09;96.68
65190;BME280;51777;53.570;9.984;2023-06-14T11:12:06;101835.84;;;29.60;96.90
65190;BME280;51777;53.570;9.984;2023-06-14T11:14:33;101826.16;;;27.19;99.45
65190;BME280;51777;53.570;9.984;2023-06-14T11:16:58;101825.72;;;26.80;100.00
65190;BME280;51777;53.570;9.984;2023-06-14T11:19:24;101828.22;;;26.75;100.00
65190;BME280;51777;53.570;9.984;2023-06-14T11:21:50;101818.03;;;27.02;100.00
65190;BME280;51777;53.570;9.984;2023-06-14T11:24:16;101822.50;;;28.30;98.62
65190;BME280;51777;53.570;9.984;2023-06-14T11:26:41;101818.25;;;29.42;97.42
65190;BME280;51777;53.570;9.984;2023-06-14T11:29:07;101810.22;;;29.03;97.58
65190;BME280;51777;53.570;9.984;2023-06-14T11:31:35;101810.25;;;27.66;99.65
65190;BME280;51777;53.570;9.984;2023-06-14T11:34:01;101803.59;;;26.98;100.00
65190;BME280;51777;53.570;9.984;2023-06-14T11:36:33;101800.69;;;27.00;100.00
65190;BME280;51777;53.570;9.984;2023-06-14T11:39:03;101808.88;;;26.86;100.00
65190;BME280;51777;53.570;9.984;2023-06-14T11:41:32;101804.81;;;26.72;100.00
65190;BME280;51777;53.570;9.984;2023-06-14T11:44:02;101802.06;;;27.67;100.00
65190;BME280;51777;53.570;9.984;2023-06-14T11:46:27;101806.19;;;28.55;98.62
65190;BME280;51777;53.570;9.984;2023-06-14T11:48:53;101811.59;;;29.61;97.57
65190;BME280;51777;53.570;9.984;2023-06-14T11:51:18;101798.53;;;29.43;97.95
65190;BME280;51777;53.570;9.984;2023-06-14T11:53:44;101797.59;;;29.32;98.39
65190;BME280;51777;53.570;9.984;2023-06-14T11:56:09;101795.09;;;29.25;98.47
65190;BME280;51777;53.570;9.984;2023-06-14T11:58:34;101785.94;;;27.86;100.00
65190;BME280;51777;53.570;9.984;2023-06-14T12:01:03;101796.31;;;29.18;98.58
65190;BME280;51777;53.570;9.984;2023-06-14T12:03:28;101799.28;;;29.55;97.62
65190;BME280;51777;53.570;9.984;2023-06-14T12:08:32;101795.78;;;30.15;96.22
65190;BME280;51777;53.570;9.984;2023-06-14T12:11:03;101792.69;;;30.87;95.26
65190;BME280;51777;53.570;9.984;2023-06-14T12:13:30;101784.72;;;30.06;96.55
65190;BME280;51777;53.570;9.984;2023-06-14T12:15:59;101778.28;;;29.80;97.20
65190;BME280;51777;53.570;9.984;2023-06-14T12:18:35;101775.94;;;28.45;98.27
65190;BME280;51777;53.570;9.984;2023-06-14T12:21:01;101782.00;;;29.41;97.72
65190;BME280;51777;53.570;9.984;2023-06-14T12:23:39;101780.59;;;30.75;96.23
65190;BME280;51777;53.570;9.984;2023-06-14T12:26:05;101771.84;;;28.54;98.24
65190;BME280;51777;53.570;9.984;2023-06-14T12:28:31;101781.38;;;28.66;98.54
65190;BME280;51777;53.570;9.984;2023-06-14T12:30:56;101763.63;;;28.27;98.76
65190;BME280;51777;53.570;9.984;2023-06-14T12:33:23;101778.34;;;28.63;98.38
65190;BME280;51777;53.570;9.984;2023-06-14T12:35:49;101777.19;;;29.60;97.91
65190;BME280;51777;53.570;9.984;2023-06-14T12:38:15;101779.00;;;29.98;97.53
65190;BME280;51777;53.570;9.984;2023-06-14T12:40:42;101789.22;;;31.19;95.19
65190;BME280;51777;53.570;9.984;2023-06-14T12:43:08;101791.75;;;30.66;96.04
65190;BME280;51777;53.570;9.984;2023-06-14T12:45:35;101785.03;;;31.33;94.91
65190;BME280;51777;53.570;9.984;2023-06-14T12:48:01;101774.63;;;31.99;94.40
65190;BME280;51777;53.570;9.984;2023-06-14T12:50:27;101774.41;;;31.43;95.26
65190;BME280;51777;53.570;9.984;2023-06-14T12:52:52;101784.13;;;30.80;96.13
65190;BME280;51777;53.570;9.984;2023-06-14T12:55:18;101772.34;;;30.00;96.75
65190;BME280;51777;53.570;9.984;2023-06-14T12:57:44;101768.22;;;29.27;97.53
65190;BME280;51777;53.570;9.984;2023-06-14T13:00:10;101769.44;;;30.02;96.71
65190;BME280;51777;53.570;9.984;2023-06-14T13:02:36;101770.28;;;29.80;96.70